ENVR/VRY METAR and TAF weather

Enter ICAO airport designator
Station Type Date Time Source
ENVR METAR 2019/08/22 06:50 UTC NOAA

ENVR 220650Z 20007KT 9999 FEW012 SCT020 13/11 Q1016


Station Type Date Time Source
ENVR Decoded METAR 2019/08/22 06:50 UTC NOAA

Station name not available
Aug 22, 2019 - 02:50 AM EDT / 2019.08.22 0650 UTC
Wind: from the SSW (200 degrees) at 8 MPH (7 KT):0
Visibility: greater than 7 mile(s):0
Sky conditions: partly cloudy
Temperature: 55 F (13 C)
Dew Point: 51 F (11 C)
Relative Humidity: 87%
Pressure (altimeter): 30.00 in. Hg (1016 hPa)
ob: ENVR 220650Z 20007KT 9999 FEW012 SCT020 13/11 Q1016
cycle: 7

Station Type Date Time Source
ENVR TAF UTC NOAA

Error!

Example: see airport list